sensor_id;sensor_type;location;lat;lon;timestamp;P1;durP1;ratioP1;P2;durP2;ratioP2
43664;SDS011;29263;48.172;11.484;2023-03-03T00:01:09;35.90;;;16.93;;
43664;SDS011;29263;48.172;11.484;2023-03-03T00:03:35;39.30;;;18.47;;
43664;SDS011;29263;48.172;11.484;2023-03-03T00:06:01;42.23;;;17.57;;
43664;SDS011;29263;48.172;11.484;2023-03-03T00:08:28;37.70;;;16.97;;
43664;SDS011;29263;48.172;11.484;2023-03-03T00:10:53;42.93;;;17.43;;
43664;SDS011;29263;48.172;11.484;2023-03-03T00:13:25;36.87;;;16.40;;
43664;SDS011;29263;48.172;11.484;2023-03-03T00:15:51;39.80;;;17.00;;
43664;SDS011;29263;48.172;11.484;2023-03-03T00:21:00;36.20;;;17.13;;
43664;SDS011;29263;48.172;11.484;2023-03-03T00:23:36;38.37;;;16.93;;
43664;SDS011;29263;48.172;11.484;2023-03-03T00:26:20;37.33;;;17.03;;
43664;SDS011;29263;48.172;11.484;2023-03-03T00:28:50;40.37;;;17.27;;
43664;SDS011;29263;48.172;11.484;2023-03-03T00:31:20;38.40;;;16.27;;
43664;SDS011;29263;48.172;11.484;2023-03-03T00:36:43;39.70;;;16.63;;
43664;SDS011;29263;48.172;11.484;2023-03-03T00:42:13;36.63;;;15.90;;
43664;SDS011;29263;48.172;11.484;2023-03-03T00:44:40;41.87;;;17.70;;
43664;SDS011;29263;48.172;11.484;2023-03-03T00:49:51;34.10;;;16.53;;
43664;SDS011;29263;48.172;11.484;2023-03-03T00:52:19;35.10;;;17.07;;
43664;SDS011;29263;48.172;11.484;2023-03-03T00:54:45;39.90;;;18.50;;
43664;SDS011;29263;48.172;11.484;2023-03-03T00:57:11;37.53;;;17.27;;
43664;SDS011;29263;48.172;11.484;2023-03-03T00:59:37;37.97;;;16.87;;
43664;SDS011;29263;48.172;11.484;2023-03-03T01:02:03;35.63;;;16.40;;
43664;SDS011;29263;48.172;11.484;2023-03-03T01:04:29;36.73;;;16.17;;
43664;SDS011;29263;48.172;11.484;2023-03-03T01:06:55;33.10;;;16.53;;
43664;SDS011;29263;48.172;11.484;2023-03-03T01:09:21;35.80;;;16.33;;
43664;SDS011;29263;48.172;11.484;2023-03-03T01:11:47;40.70;;;17.70;;
43664;SDS011;29263;48.172;11.484;2023-03-03T01:14:14;35.13;;;16.73;;
43664;SDS011;29263;48.172;11.484;2023-03-03T01:16:40;37.27;;;16.57;;
43664;SDS011;29263;48.172;11.484;2023-03-03T01:19:05;38.77;;;17.30;;
43664;SDS011;29263;48.172;11.484;2023-03-03T01:21:31;33.77;;;15.73;;
43664;SDS011;29263;48.172;11.484;2023-03-03T01:23:57;39.43;;;17.40;;
43664;SDS011;29263;48.172;11.484;2023-03-03T01:26:23;41.73;;;18.50;;
43664;SDS011;29263;48.172;11.484;2023-03-03T01:28:48;36.57;;;17.60;;
43664;SDS011;29263;48.172;11.484;2023-03-03T01:31:14;37.00;;;16.97;;
43664;SDS011;29263;48.172;11.484;2023-03-03T01:33:43;35.47;;;18.03;;
43664;SDS011;29263;48.172;11.484;2023-03-03T01:36:08;39.97;;;17.88;;
43664;SDS011;29263;48.172;11.484;2023-03-03T01:38:34;36.27;;;16.60;;
43664;SDS011;29263;48.172;11.484;2023-03-03T01:41:01;33.73;;;16.63;;
43664;SDS011;29263;48.172;11.484;2023-03-03T01:43:30;38.33;;;16.63;;
43664;SDS011;29263;48.172;11.484;2023-03-03T01:48:29;37.67;;;16.50;;
43664;SDS011;29263;48.172;11.484;2023-03-03T01:51:02;39.90;;;16.97;;
43664;SDS011;29263;48.172;11.484;2023-03-03T01:53:38;38.13;;;17.67;;
43664;SDS011;29263;48.172;11.484;2023-03-03T01:56:08;38.30;;;16.17;;
43664;SDS011;29263;48.172;11.484;2023-03-03T01:58:35;39.10;;;16.67;;
43664;SDS011;29263;48.172;11.484;2023-03-03T02:01:10;37.27;;;16.50;;
43664;SDS011;29263;48.172;11.484;2023-03-03T02:03:39;33.63;;;15.53;;
43664;SDS011;29263;48.172;11.484;2023-03-03T02:06:09;36.87;;;15.40;;
43664;SDS011;29263;48.172;11.484;2023-03-03T02:08:49;36.27;;;16.47;;
43664;SDS011;29263;48.172;11.484;2023-03-03T02:11:19;28.67;;;13.13;;
43664;SDS011;29263;48.172;11.484;2023-03-03T02:13:46;36.43;;;15.93;;
43664;SDS011;29263;48.172;11.484;2023-03-03T02:16:12;35.07;;;15.40;;
43664;SDS011;29263;48.172;11.484;2023-03-03T02:18:37;38.33;;;17.17;;
43664;SDS011;29263;48.172;11.484;2023-03-03T02:21:09;40.67;;;17.27;;
43664;SDS011;29263;48.172;11.484;2023-03-03T02:26:31;36.00;;;15.77;;
43664;SDS011;29263;48.172;11.484;2023-03-03T02:29:00;40.57;;;16.93;;
43664;SDS011;29263;48.172;11.484;2023-03-03T02:31:27;36.53;;;16.10;;
43664;SDS011;29263;48.172;11.484;2023-03-03T02:33:54;35.00;;;16.47;;
43664;SDS011;29263;48.172;11.484;2023-03-03T02:36:21;33.87;;;16.97;;
43664;SDS011;29263;48.172;11.484;2023-03-03T02:38:54;35.35;;;15.95;;
43664;SDS011;29263;48.172;11.484;2023-03-03T02:44:01;38.30;;;17.03;;
43664;SDS011;29263;48.172;11.484;2023-03-03T02:46:33;31.47;;;14.77;;
43664;SDS011;29263;48.172;11.484;2023-03-03T02:49:03;32.43;;;15.13;;
43664;SDS011;29263;48.172;11.484;2023-03-03T02:51:30;35.57;;;16.27;;
43664;SDS011;29263;48.172;11.484;2023-03-03T02:53:56;36.40;;;16.03;;
43664;SDS011;29263;48.172;11.484;2023-03-03T02:56:21;35.13;;;17.03;;
43664;SDS011;29263;48.172;11.484;2023-03-03T02:58:47;39.00;;;16.67;;
43664;SDS011;29263;48.172;11.484;2023-03-03T03:01:13;35.10;;;16.10;;
43664;SDS011;29263;48.172;11.484;2023-03-03T03:03:38;34.97;;;16.37;;
43664;SDS011;29263;48.172;11.484;2023-03-03T03:06:04;37.53;;;16.70;;
43664;SDS011;29263;48.172;11.484;2023-03-03T03:08:30;35.73;;;16.03;;
43664;SDS011;29263;48.172;11.484;2023-03-03T03:10:55;35.00;;;16.30;;
43664;SDS011;29263;48.172;11.484;2023-03-03T03:13:22;40.03;;;16.27;;
43664;SDS011;29263;48.172;11.484;2023-03-03T03:15:48;35.77;;;15.87;;
43664;SDS011;29263;48.172;11.484;2023-03-03T03:18:14;32.57;;;15.57;;
43664;SDS011;29263;48.172;11.484;2023-03-03T03:20:40;33.13;;;16.33;;
43664;SDS011;29263;48.172;11.484;2023-03-03T03:23:06;34.90;;;17.37;;
43664;SDS011;29263;48.172;11.484;2023-03-03T03:25:33;35.37;;;16.03;;
43664;SDS011;29263;48.172;11.484;2023-03-03T03:27:59;37.67;;;16.67;;
43664;SDS011;29263;48.172;11.484;2023-03-03T03:30:26;37.37;;;17.13;;
43664;SDS011;29263;48.172;11.484;2023-03-03T03:32:51;36.97;;;17.03;;
43664;SDS011;29263;48.172;11.484;2023-03-03T03:35:17;36.20;;;16.27;;
43664;SDS011;29263;48.172;11.484;2023-03-03T03:37:43;37.27;;;16.73;;
43664;SDS011;29263;48.172;11.484;2023-03-03T03:40:09;37.10;;;16.93;;
43664;SDS011;29263;48.172;11.484;2023-03-03T03:42:35;35.47;;;17.33;;
43664;SDS011;29263;48.172;11.484;2023-03-03T03:45:02;37.87;;;15.87;;
43664;SDS011;29263;48.172;11.484;2023-03-03T03:47:28;38.43;;;16.70;;
43664;SDS011;29263;48.172;11.484;2023-03-03T03:49:54;32.60;;;16.43;;
43664;SDS011;29263;48.172;11.484;2023-03-03T03:52:19;37.63;;;17.17;;
43664;SDS011;29263;48.172;11.484;2023-03-03T03:54:45;36.30;;;16.13;;
43664;SDS011;29263;48.172;11.484;2023-03-03T03:57:10;38.20;;;17.27;;
43664;SDS011;29263;48.172;11.484;2023-03-03T03:59:36;31.93;;;15.77;;
43664;SDS011;29263;48.172;11.484;2023-03-03T04:02:02;39.07;;;17.13;;
43664;SDS011;29263;48.172;11.484;2023-03-03T04:04:28;37.70;;;17.50;;
43664;SDS011;29263;48.172;11.484;2023-03-03T04:06:54;33.03;;;15.97;;
43664;SDS011;29263;48.172;11.484;2023-03-03T04:09:19;42.93;;;18.73;;
43664;SDS011;29263;48.172;11.484;2023-03-03T04:11:45;32.03;;;17.20;;
43664;SDS011;29263;48.172;11.484;2023-03-03T04:14:11;33.77;;;16.83;;
43664;SDS011;29263;48.172;11.484;2023-03-03T04:16:36;35.73;;;17.17;;
43664;SDS011;29263;48.172;11.484;2023-03-03T04:19:02;39.63;;;17.10;;
43664;SDS011;29263;48.172;11.484;2023-03-03T04:21:28;34.53;;;16.73;;
43664;SDS011;29263;48.172;11.484;2023-03-03T04:23:54;33.87;;;17.13;;
43664;SDS011;29263;48.172;11.484;2023-03-03T04:26:19;37.70;;;18.20;;
43664;SDS011;29263;48.172;11.484;2023-03-03T04:28:45;36.10;;;16.67;;
43664;SDS011;29263;48.172;11.484;2023-03-03T04:31:10;33.67;;;16.77;;
43664;SDS011;29263;48.172;11.484;2023-03-03T04:33:39;32.55;;;16.33;;
43664;SDS011;29263;48.172;11.484;2023-03-03T04:36:05;39.93;;;18.00;;
43664;SDS011;29263;48.172;11.484;2023-03-03T04:38:30;37.37;;;17.20;;
43664;SDS011;29263;48.172;11.484;2023-03-03T04:40:56;33.73;;;17.37;;
43664;SDS011;29263;48.172;11.484;2023-03-03T04:43:22;37.67;;;18.80;;
43664;SDS011;29263;48.172;11.484;2023-03-03T04:45:47;37.00;;;18.30;;
43664;SDS011;29263;48.172;11.484;2023-03-03T04:48:13;36.63;;;17.43;;
43664;SDS011;29263;48.172;11.484;2023-03-03T04:50:40;35.37;;;16.17;;
43664;SDS011;29263;48.172;11.484;2023-03-03T04:53:06;38.23;;;17.97;;
43664;SDS011;29263;48.172;11.484;2023-03-03T04:55:31;38.83;;;17.40;;
43664;SDS011;29263;48.172;11.484;2023-03-03T04:57:59;39.03;;;17.50;;
43664;SDS011;29263;48.172;11.484;2023-03-03T05:00:28;34.17;;;17.80;;
43664;SDS011;29263;48.172;11.484;2023-03-03T05:02:53;36.73;;;17.47;;
43664;SDS011;29263;48.172;11.484;2023-03-03T05:05:19;37.03;;;18.30;;
43664;SDS011;29263;48.172;11.484;2023-03-03T05:07:45;35.33;;;18.00;;
43664;SDS011;29263;48.172;11.484;2023-03-03T05:10:10;38.53;;;19.10;;
43664;SDS011;29263;48.172;11.484;2023-03-03T05:12:36;36.13;;;17.00;;
43664;SDS011;29263;48.172;11.484;2023-03-03T05:15:02;42.73;;;19.33;;
43664;SDS011;29263;48.172;11.484;2023-03-03T05:17:28;38.03;;;17.10;;
43664;SDS011;29263;48.172;11.484;2023-03-03T05:19:54;38.90;;;19.53;;
43664;SDS011;29263;48.172;11.484;2023-03-03T05:22:21;37.63;;;18.17;;
43664;SDS011;29263;48.172;11.484;2023-03-03T05:24:47;39.67;;;18.47;;
43664;SDS011;29263;48.172;11.484;2023-03-03T05:27:13;40.00;;;18.73;;
43664;SDS011;29263;48.172;11.484;2023-03-03T05:29:42;39.50;;;18.50;;
43664;SDS011;29263;48.172;11.484;2023-03-03T05:32:08;41.70;;;19.70;;
43664;SDS011;29263;48.172;11.484;2023-03-03T05:34:33;40.17;;;18.17;;
43664;SDS011;29263;48.172;11.484;2023-03-03T05:36:59;33.83;;;17.53;;
43664;SDS011;29263;48.172;11.484;2023-03-03T05:39:24;44.23;;;19.73;;
43664;SDS011;29263;48.172;11.484;2023-03-03T05:41:50;41.60;;;19.40;;
43664;SDS011;29263;48.172;11.484;2023-03-03T05:44:16;40.37;;;18.70;;
43664;SDS011;29263;48.172;11.484;2023-03-03T05:46:41;43.10;;;19.13;;
43664;SDS011;29263;48.172;11.484;2023-03-03T05:49:07;40.10;;;18.90;;
43664;SDS011;29263;48.172;11.484;2023-03-03T05:51:33;41.13;;;19.97;;
43664;SDS011;29263;48.172;11.484;2023-03-03T05:53:58;41.00;;;18.40;;
43664;SDS011;29263;48.172;11.484;2023-03-03T05:56:24;38.93;;;18.70;;
43664;SDS011;29263;48.172;11.484;2023-03-03T05:58:50;41.53;;;19.20;;
43664;SDS011;29263;48.172;11.484;2023-03-03T06:01:15;35.13;;;17.27;;
43664;SDS011;29263;48.172;11.484;2023-03-03T06:03:41;36.33;;;18.07;;
43664;SDS011;29263;48.172;11.484;2023-03-03T06:06:07;41.43;;;19.33;;
43664;SDS011;29263;48.172;11.484;2023-03-03T06:08:33;44.87;;;20.63;;
43664;SDS011;29263;48.172;11.484;2023-03-03T06:10:59;39.70;;;19.73;;
43664;SDS011;29263;48.172;11.484;2023-03-03T06:13:24;42.67;;;20.63;;
43664;SDS011;29263;48.172;11.484;2023-03-03T06:15:51;42.13;;;19.13;;
43664;SDS011;29263;48.172;11.484;2023-03-03T06:18:16;39.47;;;18.33;;
43664;SDS011;29263;48.172;11.484;2023-03-03T06:20:42;40.10;;;18.73;;
43664;SDS011;29263;48.172;11.484;2023-03-03T06:23:07;49.67;;;21.33;;
43664;SDS011;29263;48.172;11.484;2023-03-03T06:25:33;41.20;;;20.43;;
43664;SDS011;29263;48.172;11.484;2023-03-03T06:28:00;42.97;;;19.57;;
43664;SDS011;29263;48.172;11.484;2023-03-03T06:30:26;47.83;;;21.20;;
43664;SDS011;29263;48.172;11.484;2023-03-03T06:32:52;49.17;;;21.77;;
43664;SDS011;29263;48.172;11.484;2023-03-03T06:35:18;45.97;;;20.40;;
43664;SDS011;29263;48.172;11.484;2023-03-03T06:37:44;48.17;;;21.63;;
43664;SDS011;29263;48.172;11.484;2023-03-03T06:40:10;42.73;;;22.13;;
43664;SDS011;29263;48.172;11.484;2023-03-03T06:42:36;48.90;;;23.03;;
43664;SDS011;29263;48.172;11.484;2023-03-03T06:45:02;44.30;;;21.10;;
43664;SDS011;29263;48.172;11.484;2023-03-03T06:47:28;49.90;;;22.80;;
43664;SDS011;29263;48.172;11.484;2023-03-03T06:49:53;50.73;;;22.40;;
43664;SDS011;29263;48.172;11.484;2023-03-03T06:52:19;44.23;;;20.67;;
43664;SDS011;29263;48.172;11.484;2023-03-03T06:54:50;53.80;;;22.80;;
43664;SDS011;29263;48.172;11.484;2023-03-03T06:59:51;47.53;;;21.63;;
43664;SDS011;29263;48.172;11.484;2023-03-03T07:02:19;46.60;;;21.80;;
43664;SDS011;29263;48.172;11.484;2023-03-03T07:04:45;50.03;;;22.83;;
43664;SDS011;29263;48.172;11.484;2023-03-03T07:07:24;47.93;;;23.50;;
43664;SDS011;29263;48.172;11.484;2023-03-03T07:09:51;54.67;;;24.43;;
43664;SDS011;29263;48.172;11.484;2023-03-03T07:12:20;47.97;;;21.58;;
43664;SDS011;29263;48.172;11.484;2023-03-03T07:14:52;44.13;;;21.90;;
43664;SDS011;29263;48.172;11.484;2023-03-03T07:17:35;47.17;;;22.90;;
43664;SDS011;29263;48.172;11.484;2023-03-03T07:20:13;49.23;;;21.37;;
43664;SDS011;29263;48.172;11.484;2023-03-03T07:22:47;46.67;;;21.90;;
43664;SDS011;29263;48.172;11.484;2023-03-03T07:25:34;49.07;;;22.53;;
43664;SDS011;29263;48.172;11.484;2023-03-03T07:28:14;55.67;;;23.27;;
43664;SDS011;29263;48.172;11.484;2023-03-03T07:30:48;48.57;;;22.87;;
43664;SDS011;29263;48.172;11.484;2023-03-03T07:36:17;44.33;;;21.30;;
43664;SDS011;29263;48.172;11.484;2023-03-03T07:39:00;58.23;;;24.27;;
43664;SDS011;29263;48.172;11.484;2023-03-03T07:41:36;46.37;;;21.77;;
43664;SDS011;29263;48.172;11.484;2023-03-03T07:44:04;48.70;;;23.60;;
43664;SDS011;29263;48.172;11.484;2023-03-03T07:46:42;52.43;;;23.43;;
43664;SDS011;29263;48.172;11.484;2023-03-03T07:49:22;48.97;;;22.73;;
43664;SDS011;29263;48.172;11.484;2023-03-03T07:51:55;47.47;;;22.07;;
43664;SDS011;29263;48.172;11.484;2023-03-03T07:54:37;44.25;;;22.38;;
43664;SDS011;29263;48.172;11.484;2023-03-03T07:59:36;49.37;;;23.37;;
43664;SDS011;29263;48.172;11.484;2023-03-03T08:02:05;46.63;;;21.55;;
43664;SDS011;29263;48.172;11.484;2023-03-03T08:04:47;49.97;;;23.67;;
43664;SDS011;29263;48.172;11.484;2023-03-03T08:07:16;49.70;;;22.43;;
43664;SDS011;29263;48.172;11.484;2023-03-03T08:09:47;50.73;;;23.33;;
43664;SDS011;29263;48.172;11.484;2023-03-03T08:14:55;48.13;;;22.80;;
43664;SDS011;29263;48.172;11.484;2023-03-03T08:17:35;44.50;;;22.10;;
43664;SDS011;29263;48.172;11.484;2023-03-03T08:20:09;50.03;;;23.47;;
43664;SDS011;29263;48.172;11.484;2023-03-03T08:23:08;53.50;;;22.23;;
43664;SDS011;29263;48.172;11.484;2023-03-03T08:25:34;48.93;;;23.73;;
43664;SDS011;29263;48.172;11.484;2023-03-03T08:28:00;50.23;;;23.57;;
43664;SDS011;29263;48.172;11.484;2023-03-03T08:30:26;48.23;;;24.30;;
43664;SDS011;29263;48.172;11.484;2023-03-03T08:32:51;53.07;;;23.07;;
43664;SDS011;29263;48.172;11.484;2023-03-03T08:35:17;44.13;;;22.33;;
43664;SDS011;29263;48.172;11.484;2023-03-03T08:37:42;46.53;;;23.87;;
43664;SDS011;29263;48.172;11.484;2023-03-03T08:40:08;45.47;;;22.27;;
43664;SDS011;29263;48.172;11.484;2023-03-03T08:42:34;47.33;;;22.83;;
43664;SDS011;29263;48.172;11.484;2023-03-03T08:45:00;48.63;;;23.20;;
43664;SDS011;29263;48.172;11.484;2023-03-03T08:47:25;50.23;;;23.30;;
43664;SDS011;29263;48.172;11.484;2023-03-03T08:49:51;48.87;;;24.10;;
43664;SDS011;29263;48.172;11.484;2023-03-03T08:52:18;45.60;;;23.17;;
43664;SDS011;29263;48.172;11.484;2023-03-03T08:54:44;46.43;;;22.77;;
43664;SDS011;29263;48.172;11.484;2023-03-03T08:57:09;51.80;;;21.90;;
43664;SDS011;29263;48.172;11.484;2023-03-03T08:59:35;46.37;;;22.93;;
43664;SDS011;29263;48.172;11.484;2023-03-03T09:02:03;50.67;;;23.70;;
43664;SDS011;29263;48.172;11.484;2023-03-03T09:04:29;46.53;;;22.60;;
43664;SDS011;29263;48.172;11.484;2023-03-03T09:06:55;49.33;;;24.47;;
43664;SDS011;29263;48.172;11.484;2023-03-03T09:09:20;51.10;;;23.47;;
43664;SDS011;29263;48.172;11.484;2023-03-03T09:11:46;45.27;;;23.43;;
43664;SDS011;29263;48.172;11.484;2023-03-03T09:14:12;44.00;;;22.63;;
43664;SDS011;29263;48.172;11.484;2023-03-03T09:16:49;45.17;;;22.87;;
43664;SDS011;29263;48.172;11.484;2023-03-03T09:19:18;45.00;;;22.13;;
43664;SDS011;29263;48.172;11.484;2023-03-03T09:21:51;47.10;;;24.00;;
43664;SDS011;29263;48.172;11.484;2023-03-03T09:24:27;49.17;;;23.73;;
43664;SDS011;29263;48.172;11.484;2023-03-03T09:26:55;46.63;;;23.97;;
43664;SDS011;29263;48.172;11.484;2023-03-03T09:29:27;41.80;;;22.27;;
43664;SDS011;29263;48.172;11.484;2023-03-03T09:31:58;43.07;;;23.03;;
43664;SDS011;29263;48.172;11.484;2023-03-03T09:34:32;45.80;;;22.83;;
43664;SDS011;29263;48.172;11.484;2023-03-03T09:37:22;42.53;;;22.17;;
43664;SDS011;29263;48.172;11.484;2023-03-03T09:39:53;43.47;;;22.00;;
43664;SDS011;29263;48.172;11.484;2023-03-03T09:52:42;45.47;;;23.00;;
43664;SDS011;29263;48.172;11.484;2023-03-03T10:14:03;49.27;;;23.10;;
43664;SDS011;29263;48.172;11.484;2023-03-03T10:22:44;51.80;;;23.53;;
43664;SDS011;29263;48.172;11.484;2023-03-03T10:33:33;46.03;;;23.63;;
43664;SDS011;29263;48.172;11.484;2023-03-03T10:38:59;49.87;;;24.70;;
43664;SDS011;29263;48.172;11.484;2023-03-03T10:41:55;42.57;;;23.03;;
43664;SDS011;29263;48.172;11.484;2023-03-03T10:55:17;45.20;;;23.33;;
43664;SDS011;29263;48.172;11.484;2023-03-03T11:09:18;39.33;;;22.57;;
43664;SDS011;29263;48.172;11.484;2023-03-03T11:11:52;44.35;;;22.45;;
43664;SDS011;29263;48.172;11.484;2023-03-03T11:14:44;40.47;;;21.73;;
43664;SDS011;29263;48.172;11.484;2023-03-03T11:20:12;46.67;;;22.53;;
43664;SDS011;29263;48.172;11.484;2023-03-03T11:41:10;39.80;;;22.90;;
43664;SDS011;29263;48.172;11.484;2023-03-03T11:46:47;40.73;;;21.87;;
43664;SDS011;29263;48.172;11.484;2023-03-03T11:51:53;41.80;;;22.00;;
43664;SDS011;29263;48.172;11.484;2023-03-03T12:00:21;45.17;;;22.87;;
43664;SDS011;29263;48.172;11.484;2023-03-03T12:02:59;45.37;;;23.23;;
43664;SDS011;29263;48.172;11.484;2023-03-03T12:08:56;41.27;;;23.47;;
43664;SDS011;29263;48.172;11.484;2023-03-03T12:11:26;47.90;;;23.07;;
43664;SDS011;29263;48.172;11.484;2023-03-03T12:14:08;41.60;;;22.47;;
43664;SDS011;29263;48.172;11.484;2023-03-03T12:30:10;43.50;;;21.43;;
43664;SDS011;29263;48.172;11.484;2023-03-03T12:44:19;41.63;;;22.10;;
43664;SDS011;29263;48.172;11.484;2023-03-03T12:46:58;49.37;;;23.60;;
43664;SDS011;29263;48.172;11.484;2023-03-03T13:00:27;44.43;;;23.90;;
43664;SDS011;29263;48.172;11.484;2023-03-03T13:16:36;45.53;;;23.20;;
43664;SDS011;29263;48.172;11.484;2023-03-03T13:19:10;37.03;;;21.27;;
43664;SDS011;29263;48.172;11.484;2023-03-03T13:24:58;40.80;;;22.37;;
43664;SDS011;29263;48.172;11.484;2023-03-03T13:27:39;42.77;;;21.53;;
43664;SDS011;29263;48.172;11.484;2023-03-03T13:30:19;39.77;;;22.00;;
43664;SDS011;29263;48.172;11.484;2023-03-03T13:32:56;55.93;;;22.63;;
43664;SDS011;29263;48.172;11.484;2023-03-03T13:35:29;42.07;;;21.47;;
43664;SDS011;29263;48.172;11.484;2023-03-03T13:38:12;40.43;;;21.83;;
43664;SDS011;29263;48.172;11.484;2023-03-03T13:40:49;37.60;;;21.20;;
43664;SDS011;29263;48.172;11.484;2023-03-03T13:43:28;43.43;;;22.70;;
43664;SDS011;29263;48.172;11.484;2023-03-03T13:59:20;47.47;;;22.17;;
43664;SDS011;29263;48.172;11.484;2023-03-03T14:02:00;42.07;;;23.47;;
43664;SDS011;29263;48.172;11.484;2023-03-03T14:07:36;41.90;;;22.03;;
43664;SDS011;29263;48.172;11.484;2023-03-03T14:18:15;41.83;;;21.75;;
43664;SDS011;29263;48.172;11.484;2023-03-03T14:20:50;40.73;;;21.97;;
43664;SDS011;29263;48.172;11.484;2023-03-03T14:25:53;41.47;;;21.33;;
43664;SDS011;29263;48.172;11.484;2023-03-03T14:28:24;38.03;;;20.73;;
43664;SDS011;29263;48.172;11.484;2023-03-03T14:30:53;38.10;;;21.00;;
43664;SDS011;29263;48.172;11.484;2023-03-03T14:33:26;38.85;;;21.13;;
43664;SDS011;29263;48.172;11.484;2023-03-03T14:38:45;37.60;;;21.20;;
43664;SDS011;29263;48.172;11.484;2023-03-03T14:41:21;39.22;;;21.75;;
43664;SDS011;29263;48.172;11.484;2023-03-03T14:43:59;35.38;;;20.92;;
43664;SDS011;29263;48.172;11.484;2023-03-03T14:48:55;35.67;;;21.75;;
43664;SDS011;29263;48.172;11.484;2023-03-03T14:51:24;30.13;;;19.40;;
43664;SDS011;29263;48.172;11.484;2023-03-03T14:53:53;32.40;;;19.90;;
43664;SDS011;29263;48.172;11.484;2023-03-03T14:56:32;31.77;;;20.15;;
43664;SDS011;29263;48.172;11.484;2023-03-03T15:01:44;37.08;;;21.55;;
43664;SDS011;29263;48.172;11.484;2023-03-03T15:13:35;36.08;;;21.45;;
43664;SDS011;29263;48.172;11.484;2023-03-03T15:16:03;31.88;;;21.05;;
43664;SDS011;29263;48.172;11.484;2023-03-03T15:18:34;33.33;;;21.02;;
43664;SDS011;29263;48.172;11.484;2023-03-03T15:21:39;37.33;;;21.45;;
43664;SDS011;29263;48.172;11.484;2023-03-03T15:27:03;38.63;;;20.55;;
43664;SDS011;29263;48.172;11.484;2023-03-03T15:37:40;34.65;;;21.75;;
43664;SDS011;29263;48.172;11.484;2023-03-03T15:45:33;37.38;;;20.95;;
43664;SDS011;29263;48.172;11.484;2023-03-03T15:50:49;35.55;;;21.30;;
43664;SDS011;29263;48.172;11.484;2023-03-03T16:04:03;36.03;;;20.30;;
43664;SDS011;29263;48.172;11.484;2023-03-03T16:09:48;40.07;;;20.57;;
43664;SDS011;29263;48.172;11.484;2023-03-03T16:12:36;35.33;;;19.50;;
43664;SDS011;29263;48.172;11.484;2023-03-03T16:23:38;38.73;;;20.47;;
43664;SDS011;29263;48.172;11.484;2023-03-03T16:26:31;39.47;;;21.67;;
43664;SDS011;29263;48.172;11.484;2023-03-03T16:31:35;38.33;;;20.33;;
43664;SDS011;29263;48.172;11.484;2023-03-03T16:44:29;37.70;;;22.23;;
43664;SDS011;29263;48.172;11.484;2023-03-03T17:03:57;41.00;;;21.47;;
43664;SDS011;29263;48.172;11.484;2023-03-03T17:09:25;39.77;;;21.33;;
43664;SDS011;29263;48.172;11.484;2023-03-03T17:15:07;41.80;;;22.27;;
43664;SDS011;29263;48.172;11.484;2023-03-03T17:17:46;39.80;;;21.57;;
43664;SDS011;29263;48.172;11.484;2023-03-03T17:34:27;40.83;;;21.60;;
43664;SDS011;29263;48.172;11.484;2023-03-03T17:37:42;42.50;;;22.33;;
43664;SDS011;29263;48.172;11.484;2023-03-03T17:46:01;42.27;;;20.93;;
43664;SDS011;29263;48.172;11.484;2023-03-03T17:57:09;38.80;;;21.43;;
43664;SDS011;29263;48.172;11.484;2023-03-03T17:59:55;39.47;;;21.47;;
43664;SDS011;29263;48.172;11.484;2023-03-03T18:02:48;38.63;;;20.53;;
43664;SDS011;29263;48.172;11.484;2023-03-03T18:05:59;43.63;;;20.93;;
43664;SDS011;29263;48.172;11.484;2023-03-03T18:11:28;44.50;;;22.27;;
43664;SDS011;29263;48.172;11.484;2023-03-03T18:19:38;46.23;;;22.60;;
43664;SDS011;29263;48.172;11.484;2023-03-03T18:22:16;40.93;;;22.43;;
43664;SDS011;29263;48.172;11.484;2023-03-03T18:35:24;40.70;;;22.13;;
43664;SDS011;29263;48.172;11.484;2023-03-03T18:40:50;43.47;;;24.10;;
43664;SDS011;29263;48.172;11.484;2023-03-03T18:46:03;46.47;;;23.47;;
43664;SDS011;29263;48.172;11.484;2023-03-03T19:04:34;45.90;;;25.17;;
43664;SDS011;29263;48.172;11.484;2023-03-03T19:07:07;42.00;;;23.33;;
43664;SDS011;29263;48.172;11.484;2023-03-03T19:09:43;48.53;;;24.00;;
43664;SDS011;29263;48.172;11.484;2023-03-03T19:12:16;44.93;;;23.23;;
43664;SDS011;29263;48.172;11.484;2023-03-03T19:15:06;45.67;;;23.13;;
43664;SDS011;29263;48.172;11.484;2023-03-03T19:17:52;49.85;;;24.85;;
43664;SDS011;29263;48.172;11.484;2023-03-03T19:20:22;46.53;;;22.40;;
43664;SDS011;29263;48.172;11.484;2023-03-03T19:22:52;43.80;;;23.67;;
43664;SDS011;29263;48.172;11.484;2023-03-03T19:25:29;51.67;;;25.33;;
43664;SDS011;29263;48.172;11.484;2023-03-03T19:30:58;50.27;;;23.20;;
43664;SDS011;29263;48.172;11.484;2023-03-03T19:33:58;41.27;;;22.50;;
43664;SDS011;29263;48.172;11.484;2023-03-03T19:53:04;48.73;;;24.63;;
43664;SDS011;29263;48.172;11.484;2023-03-03T19:55:48;52.30;;;26.00;;
43664;SDS011;29263;48.172;11.484;2023-03-03T20:01:53;53.03;;;25.97;;
43664;SDS011;29263;48.172;11.484;2023-03-03T20:04:22;49.60;;;25.27;;
43664;SDS011;29263;48.172;11.484;2023-03-03T20:09:54;52.90;;;26.80;;
43664;SDS011;29263;48.172;11.484;2023-03-03T20:12:36;52.83;;;24.90;;
43664;SDS011;29263;48.172;11.484;2023-03-03T20:15:08;47.47;;;24.87;;
43664;SDS011;29263;48.172;11.484;2023-03-03T20:17:43;55.03;;;25.83;;
43664;SDS011;29263;48.172;11.484;2023-03-03T20:25:52;53.00;;;25.37;;
43664;SDS011;29263;48.172;11.484;2023-03-03T20:31:21;51.27;;;27.33;;
43664;SDS011;29263;48.172;11.484;2023-03-03T20:37:07;54.13;;;26.80;;
43664;SDS011;29263;48.172;11.484;2023-03-03T20:39:37;51.73;;;26.67;;
43664;SDS011;29263;48.172;11.484;2023-03-03T20:54:15;53.90;;;25.60;;
43664;SDS011;29263;48.172;11.484;2023-03-03T20:59:16;53.85;;;26.35;;
43664;SDS011;29263;48.172;11.484;2023-03-03T21:02:07;57.28;;;26.20;;
43664;SDS011;29263;48.172;11.484;2023-03-03T21:04:38;49.53;;;26.03;;
43664;SDS011;29263;48.172;11.484;2023-03-03T21:07:03;58.30;;;27.17;;
43664;SDS011;29263;48.172;11.484;2023-03-03T21:11:57;52.10;;;26.53;;
43664;SDS011;29263;48.172;11.484;2023-03-03T21:14:25;55.20;;;25.43;;
43664;SDS011;29263;48.172;11.484;2023-03-03T21:16:57;50.23;;;25.47;;
43664;SDS011;29263;48.172;11.484;2023-03-03T21:19:33;53.75;;;25.55;;
43664;SDS011;29263;48.172;11.484;2023-03-03T21:22:00;54.03;;;26.20;;
43664;SDS011;29263;48.172;11.484;2023-03-03T21:27:31;53.50;;;26.93;;
43664;SDS011;29263;48.172;11.484;2023-03-03T21:30:09;58.47;;;28.07;;
43664;SDS011;29263;48.172;11.484;2023-03-03T21:35:06;51.43;;;27.20;;
43664;SDS011;29263;48.172;11.484;2023-03-03T21:37:46;49.10;;;25.67;;
43664;SDS011;29263;48.172;11.484;2023-03-03T21:40:21;52.73;;;25.70;;
43664;SDS011;29263;48.172;11.484;2023-03-03T21:42:54;53.17;;;27.53;;
43664;SDS011;29263;48.172;11.484;2023-03-03T21:45:22;53.87;;;26.33;;
43664;SDS011;29263;48.172;11.484;2023-03-03T21:47:49;55.70;;;28.03;;